バンギ の空港の天気 - METARとTAF

バンギ・ムポコ国際空港 ( FEFF / BGF ) - 中央アフリカ バンギ
飛行場実況気象(Metar)
観測時間10/19 00:00 WAT (10/18 23:00 UTC)
風向・風速不定 1m/s
視程10km以上
天気現象
なし
気温24℃
湿度94%
気圧1011hPa
METARFEFF 182300Z VRB02KT CAVOK 24/23 Q1011 NOSIG
過去の天気等 Google飛行場航空写真 Wunderground天気予報

過去48時間のMETAR

飛行場予報(TAF)
発表時間: 10/19 00:00 WAT (10/18 23:00 UTC)
予報対象時間: 19日1時 WAT ~ 20日7時 WAT
風向・風速不定 1m/s
視程8000m
少しの雲 雲底高度 400m
19日4時 WAT から 確率 40% で
視程3000m
天気現象もや
19日9時 WAT ~ 19日14時 WAT に一時的に
風向・風速不定 7m/s
視程4000m
天気現象雷雨
全天の8割程度の雲 雲底高度 300m
全天の4割程度の積乱雲 雲底高度 1010m
TAF FEFF 182300Z 1900/2006 VRB02KT 8000 FEW013
PROB40 1903/1906 3000 BR
TEMPO 1908/1913 VRB13KT 4000 TSRA BKN010 SCT033CB